Time;durP1;ratioP1;P1;durP2;ratioP2;P2;SDS_P1;SDS_P2;PMS_P1;PMS_P2;Temp;Humidity;BMP_temperature;BMP_pressure;BME280_temperature;BME280_humidity;BME280_pressure;Samples;Min_cycle;Max_cycle;Signal;HPM_P1;HPM_P2
2020/12/20 00:00:16;;;;;;;24.57;12.00;;;;;;;3.40;95.06;102313.99;1812095;79;21130;-61
2020/12/20 00:02:50;;;;;;;23.92;11.65;;;;;;;3.40;95.16;102313.99;1811994;79;21417;-62
2020/12/20 00:05:19;;;;;;;31.48;12.88;;;;;;;3.40;95.01;102316.65;1812145;79;21178;-61
2020/12/20 00:07:47;;;;;;;28.45;11.88;;;;;;;3.40;95.14;102315.77;1812175;79;21157;-61
2020/12/20 00:10:16;;;;;;;26.42;11.15;;;;;;;3.42;95.15;102316.69;1811960;79;21170;-63
2020/12/20 00:12:43;;;;;;;28.75;11.97;;;;;;;3.42;95.06;102309.61;1812227;79;21185;-62
2020/12/20 00:15:11;;;;;;;32.40;12.07;;;;;;;3.44;94.96;102315.88;1811981;79;21327;-62
2020/12/20 00:17:47;;;;;;;24.67;10.93;;;;;;;3.44;94.82;102313.22;1787655;79;21493;-62
2020/12/20 00:20:15;;;;;;;39.67;12.85;;;;;;;3.48;94.85;102318.58;1760573;79;21565;-62
2020/12/20 00:22:43;;;;;;;56.37;13.40;;;;;;;3.47;94.39;102322.97;1812235;79;21529;-62
2020/12/20 00:25:10;;;;;;;34.55;12.53;;;;;;;3.48;94.15;102321.23;1811668;79;21031;-62
2020/12/20 00:27:39;;;;;;;37.17;13.18;;;;;;;3.48;94.05;102313.27;1812374;79;21728;-62
2020/12/20 00:30:08;;;;;;;32.65;12.90;;;;;;;3.47;93.67;102320.77;1811422;79;21410;-62
2020/12/20 00:32:35;;;;;;;36.35;14.73;;;;;;;3.48;93.75;102321.23;1812168;79;21219;-62
2020/12/20 00:35:05;;;;;;;52.15;13.10;;;;;;;3.47;93.58;102320.32;1812254;79;21229;-61
2020/12/20 00:37:33;;;;;;;32.63;12.37;;;;;;;3.48;93.47;102326.53;1801440;79;21137;-62
2020/12/20 00:40:01;;;;;;;46.90;12.73;;;;;;;3.47;93.32;102319.45;1845377;77;21246;-61
2020/12/20 00:42:48;;;;;;;33.83;12.45;;;;;;;3.48;93.25;102327.41;1703674;84;21172;-62
2020/12/20 00:45:16;;;;;;;42.23;13.53;;;;;;;3.47;93.05;102327.40;1703951;84;21148;-62
2020/12/20 00:47:43;;;;;;;40.75;13.30;;;;;;;3.46;92.95;102317.66;1703801;84;21691;-61
2020/12/20 00:50:11;;;;;;;54.10;13.30;;;;;;;3.46;92.94;102325.16;1703893;84;21208;-62
2020/12/20 00:52:39;;;;;;;48.48;14.18;;;;;;;3.47;92.78;102324.75;1703834;84;21391;-61
2020/12/20 00:55:07;;;;;;;33.48;13.20;;;;;;;3.44;92.75;102326.48;1703635;84;21152;-60
2020/12/20 00:57:36;;;;;;;43.23;14.18;;;;;;;3.46;92.82;102325.16;1688633;85;21141;-62
2020/12/20 01:00:04;;;;;;;34.90;12.58;;;;;;;3.48;92.89;102330.52;1688624;85;21213;-62
2020/12/20 01:02:32;;;;;;;40.85;12.50;;;;;;;3.48;92.91;102331.39;1688617;85;21123;-61
2020/12/20 01:05:00;;;;;;;35.23;13.65;;;;;;;3.48;92.92;102326.53;1688596;85;21383;-61
2020/12/20 01:07:31;;;;;;;38.55;13.05;;;;;;;3.48;92.94;102324.76;1688617;85;21183;-62
2020/12/20 01:10:00;;;;;;;26.12;12.23;;;;;;;3.49;92.90;102333.62;1688635;85;21511;-61
2020/12/20 01:12:27;;;;;;;26.42;12.85;;;;;;;3.44;93.08;102331.78;1693194;81;21251;-61
2020/12/20 01:15:16;;;;;;;26.90;13.20;;;;;;;3.48;93.26;102337.14;1889560;76;22729;-62
2020/12/20 01:17:44;;;;;;;35.23;12.33;;;;;;;3.40;93.44;102341.84;1827539;77;21550;-62
2020/12/20 01:20:16;;;;;;;28.25;13.40;;;;;;;3.40;93.73;102347.14;1860248;77;21177;-62
2020/12/20 01:22:46;;;;;;;22.90;11.43;;;;;;;3.41;93.92;102338.77;1860428;77;21476;-62
2020/12/20 01:25:15;;;;;;;23.27;11.75;;;;;;;3.39;94.01;102341.38;1860504;77;20941;-62
2020/12/20 01:27:45;;;;;;;25.30;12.28;;;;;;;3.39;94.18;102346.68;1859707;77;20921;-62
2020/12/20 01:30:13;;;;;;;26.05;11.60;;;;;;;3.36;94.08;102353.25;1860516;77;20943;-62
2020/12/20 01:32:42;;;;;;;26.45;12.93;;;;;;;3.33;94.26;102358.95;1860400;77;21394;-61
2020/12/20 01:35:11;;;;;;;28.35;12.28;;;;;;;3.33;94.53;102351.86;1860359;77;21008;-62
2020/12/20 01:37:39;;;;;;;23.73;12.65;;;;;;;3.32;94.67;102339.47;1839060;77;21043;-62
2020/12/20 01:40:08;;;;;;;28.80;12.30;;;;;;;3.33;94.56;102343.03;1830345;78;20920;-62
2020/12/20 01:42:36;;;;;;;29.77;12.65;;;;;;;3.30;94.51;102340.75;1807329;78;21425;-62
2020/12/20 01:45:05;;;;;;;22.05;12.55;;;;;;;3.29;94.49;102343.39;1830314;78;22245;-61
2020/12/20 01:47:34;;;;;;;25.25;12.75;;;;;;;3.28;94.36;102343.80;1829807;78;20999;-61
2020/12/20 01:50:12;;;;;;;23.57;12.80;;;;;;;3.32;94.03;102347.42;1889599;76;22073;-62
2020/12/20 01:52:40;;;;;;;22.35;11.43;;;;;;;3.23;92.98;102358.73;1860537;77;20870;-62
2020/12/20 01:55:08;;;;;;;25.08;12.05;;;;;;;3.21;92.20;102354.28;1860487;77;22208;-61
2020/12/20 01:57:47;;;;;;;24.63;12.33;;;;;;;3.20;91.80;102359.08;1821814;77;21001;-61
2020/12/20 02:00:17;;;;;;;24.18;12.80;;;;;;;3.20;91.80;102359.08;1857890;77;21050;-62
2020/12/20 02:02:53;;;;;;;26.45;13.40;;;;;;;3.21;91.69;102358.25;1855523;77;20941;-61
2020/12/20 02:05:21;;;;;;;26.95;13.28;;;;;;;3.20;91.04;102356.02;1860513;77;22184;-61
2020/12/20 02:07:50;;;;;;;24.95;11.73;;;;;;;3.19;90.79;102355.97;1860381;77;21532;-61
2020/12/20 02:10:19;;;;;;;26.62;13.00;;;;;;;3.19;90.38;102361.27;1860521;77;21554;-61
2020/12/20 02:12:47;;;;;;;25.90;12.35;;;;;;;3.20;90.24;102355.11;1860423;77;21538;-61
2020/12/20 02:15:17;;;;;;;26.82;13.32;;;;;;;3.21;90.02;102360.91;1859468;77;21004;-61
2020/12/20 02:17:46;;;;;;;27.48;12.45;;;;;;;3.19;89.64;102355.97;1860361;77;21092;-62
2020/12/20 02:20:16;;;;;;;26.23;12.45;;;;;;;3.19;89.61;102357.30;1860326;77;21286;-62
2020/12/20 02:22:46;;;;;;;25.20;11.68;;;;;;;3.18;89.59;102360.39;1846388;77;21000;-61
2020/12/20 02:25:14;;;;;;;29.18;13.78;;;;;;;3.19;89.46;102366.57;1860483;77;21165;-61
2020/12/20 02:27:47;;;;;;;25.90;12.55;;;;;;;3.19;89.44;102359.95;1858390;77;21135;-61
2020/12/20 02:30:15;;;;;;;23.92;12.75;;;;;;;3.18;89.30;102356.83;1860409;77;21178;-62
2020/12/20 02:32:45;;;;;;;28.10;12.58;;;;;;;3.17;89.27;102358.61;1860348;77;21189;-62
2020/12/20 02:35:13;;;;;;;25.48;12.43;;;;;;;3.17;89.29;102355.95;1860304;77;20921;-62
2020/12/20 02:37:41;;;;;;;25.12;12.37;;;;;;;3.18;89.31;102363.05;1860412;77;21039;-61
2020/12/20 02:40:08;;;;;;;28.52;12.45;;;;;;;3.22;89.31;102364.02;1860366;77;20969;-62
2020/12/20 02:42:38;;;;;;;28.35;13.00;;;;;;;3.22;89.10;102367.99;1859802;77;21122;-62
2020/12/20 02:45:08;;;;;;;28.25;12.78;;;;;;;3.22;88.98;102365.34;1860334;77;21380;-61
2020/12/20 02:47:36;;;;;;;25.62;12.58;;;;;;;3.21;88.91;102372.83;1860341;77;21102;-62
2020/12/20 02:50:04;;;;;;;28.30;13.15;;;;;;;3.21;88.90;102368.41;1860196;77;21166;-62
2020/12/20 02:52:33;;;;;;;29.60;13.32;;;;;;;3.20;88.94;102369.27;1859500;77;20925;-62
2020/12/20 02:55:01;;;;;;;25.32;12.63;;;;;;;3.18;88.63;102364.78;1860367;77;20932;-62
2020/12/20 02:57:37;;;;;;;30.57;14.50;;;;;;;3.17;88.60;102369.63;1859945;77;21207;-63
2020/12/20 03:00:25;;;;;;;27.32;13.22;;;;;;;3.12;88.67;102365.13;1856769;77;21171;-61
2020/12/20 03:02:54;;;;;;;26.42;12.40;;;;;;;3.12;88.86;102362.92;1859844;77;21460;-62
2020/12/20 03:05:22;;;;;;;31.85;13.75;;;;;;;3.13;89.08;102363.38;1859748;77;21031;-62
2020/12/20 03:07:52;;;;;;;39.92;14.05;;;;;;;3.15;89.33;102369.61;1859558;77;21067;-61
2020/12/20 03:10:21;;;;;;;43.40;14.23;;;;;;;3.14;89.54;102366.50;1859795;77;21352;-61
2020/12/20 03:12:49;;;;;;;37.15;14.68;;;;;;;3.13;89.73;102372.66;1859671;77;20937;-62
2020/12/20 03:15:19;;;;;;;36.33;14.10;;;;;;;3.10;90.26;102369.50;1859807;77;20999;-62
2020/12/20 03:17:47;;;;;;;46.58;13.90;;;;;;;3.08;90.58;102367.66;1826672;77;21564;-61
2020/12/20 03:20:16;;;;;;;33.88;13.60;;;;;;;3.07;91.00;102366.78;1859817;77;21180;-62
2020/12/20 03:22:45;;;;;;;40.83;13.65;;;;;;;3.06;91.34;102376.92;1859715;77;21374;-61
2020/12/20 03:25:14;;;;;;;42.83;14.10;;;;;;;3.03;91.50;102368.91;1855021;77;21007;-62
2020/12/20 03:27:52;;;;;;;50.90;15.15;;;;;;;3.02;91.71;102368.45;1859738;77;21052;-62
2020/12/20 03:30:32;;;;;;;56.27;14.97;;;;;;;3.06;92.00;102379.58;1841671;78;22741;-62
2020/12/20 03:33:03;;;;;;;51.53;13.53;;;;;;;2.98;92.22;102373.19;1792284;79;20946;-61
2020/12/20 03:35:35;;;;;;;48.28;14.30;;;;;;;2.96;92.52;102380.20;1815118;79;21368;-61
2020/12/20 03:38:07;;;;;;;38.80;14.40;;;;;;;2.94;92.72;102373.56;1816694;79;21699;-61
2020/12/20 03:40:37;;;;;;;63.10;16.52;;;;;;;2.94;92.97;102368.68;1816591;79;21123;-62
2020/12/20 03:43:06;;;;;;;42.43;14.43;;;;;;;2.94;93.18;102370.00;1816942;79;20981;-61
2020/12/20 03:45:35;;;;;;;51.08;17.35;;;;;;;2.96;93.41;102374.91;1815808;79;20988;-62
2020/12/20 03:48:04;;;;;;;51.20;15.50;;;;;;;2.95;93.44;102378.42;1816994;79;22267;-62
2020/12/20 03:50:34;;;;;;;48.33;15.10;;;;;;;2.92;93.63;102383.66;1816874;79;20933;-61
2020/12/20 03:53:02;;;;;;;57.48;17.77;;;;;;;2.89;93.74;102375.64;1816880;79;20910;-62
2020/12/20 03:55:37;;;;;;;52.23;17.17;;;;;;;2.88;93.96;102376.09;1815572;79;21163;-62
2020/12/20 03:58:05;;;;;;;46.08;15.40;;;;;;;2.89;94.14;102383.17;1816879;79;21013;-62
2020/12/20 04:00:33;;;;;;;53.20;17.52;;;;;;;2.90;94.22;102381.40;1816895;79;21695;-62
2020/12/20 04:03:08;;;;;;;66.60;17.12;;;;;;;2.91;94.23;102387.16;1815564;79;21232;-61
2020/12/20 04:05:38;;;;;;;52.70;16.57;;;;;;;2.91;94.30;102387.16;1816519;79;21135;-62
2020/12/20 04:08:06;;;;;;;47.78;15.88;;;;;;;2.94;94.39;102383.25;1816753;79;21108;-62
2020/12/20 04:10:34;;;;;;;50.30;18.00;;;;;;;2.93;94.31;102395.63;1816900;79;21040;-61
2020/12/20 04:13:02;;;;;;;53.45;17.12;;;;;;;2.93;94.41;102393.39;1816968;78;22159;-61
2020/12/20 04:15:35;;;;;;;32.67;16.30;;;;;;;2.94;94.38;102387.23;1816834;78;20925;-62
2020/12/20 04:18:04;;;;;;;46.45;16.82;;;;;;;2.94;94.34;102393.85;1816927;79;20989;-62
2020/12/20 04:20:32;;;;;;;36.77;16.07;;;;;;;2.94;94.38;102392.53;1816854;79;20974;-61
2020/12/20 04:23:03;;;;;;;40.48;15.60;;;;;;;2.95;94.21;102392.99;1816973;79;21475;-62
2020/12/20 04:25:32;;;;;;;40.85;15.93;;;;;;;2.94;94.08;102388.55;1815712;79;21425;-62
2020/12/20 04:28:04;;;;;;;48.23;16.17;;;;;;;2.93;94.18;102396.95;1814078;79;21261;-62
2020/12/20 04:30:32;;;;;;;46.40;16.50;;;;;;;2.94;94.25;102405.78;1824621;78;21076;-62
2020/12/20 04:33:02;;;;;;;41.95;16.97;;;;;;;2.96;94.36;102411.59;1825414;78;21067;-62
2020/12/20 04:35:31;;;;;;;44.80;15.45;;;;;;;2.98;94.33;102412.52;1825829;78;21040;-61
2020/12/20 04:38:00;;;;;;;41.77;15.98;;;;;;;3.01;94.27;102413.03;1780107;78;21398;-61
2020/12/20 04:40:32;;;;;;;34.58;15.72;;;;;;;3.01;94.08;102415.69;1770404;80;21082;-62
2020/12/20 04:43:05;;;;;;;40.25;15.30;;;;;;;3.00;93.99;102416.55;1770951;80;20936;-62
2020/12/20 04:45:34;;;;;;;31.02;14.95;;;;;;;3.01;93.82;102428.94;1739663;82;21054;-62
2020/12/20 04:48:03;;;;;;;37.98;15.03;;;;;;;3.01;93.75;102431.59;1763057;81;21059;-62
2020/12/20 04:50:33;;;;;;;38.48;14.98;;;;;;;3.01;93.19;102431.59;1762888;81;21517;-62
2020/12/20 04:53:00;;;;;;;48.00;14.98;;;;;;;3.00;93.10;102436.42;1739523;82;21089;-62
2020/12/20 04:55:36;;;;;;;29.80;15.08;;;;;;;2.99;93.12;102440.81;1761958;81;20956;-62
2020/12/20 04:58:11;;;;;;;39.08;15.25;;;;;;;2.99;93.22;102438.61;1762507;81;21070;-61
2020/12/20 05:00:39;;;;;;;42.35;14.93;;;;;;;2.98;93.23;102442.99;1739543;82;21054;-62
2020/12/20 05:03:07;;;;;;;36.10;15.13;;;;;;;2.98;93.31;102444.73;1745876;81;21709;-61
2020/12/20 05:05:35;;;;;;;33.88;14.28;;;;;;;2.96;93.33;102442.48;1739536;82;21893;-61
2020/12/20 05:08:03;;;;;;;36.77;14.40;;;;;;;2.95;93.37;102448.23;1763109;81;21162;-62
2020/12/20 05:10:38;;;;;;;31.82;14.18;;;;;;;2.94;93.28;102448.17;1710367;82;21536;-62
2020/12/20 05:13:06;;;;;;;34.88;14.85;;;;;;;2.93;93.36;102440.67;1763040;81;21141;-62
2020/12/20 05:15:34;;;;;;;32.17;15.05;;;;;;;2.94;93.39;102445.52;1739471;82;21361;-62
2020/12/20 05:18:19;;;;;;;28.23;14.50;;;;;;;2.91;93.39;102446.78;1688358;85;21161;-62
2020/12/20 05:20:56;;;;;;;37.03;14.27;;;;;;;2.93;93.49;102449.03;1873184;76;22663;-62
2020/12/20 05:23:30;;;;;;;33.50;16.65;;;;;;;2.85;93.52;102449.75;1841145;78;21504;-62
2020/12/20 05:26:26;;;;;;;36.33;15.18;;;;;;;2.84;93.76;102443.99;1841157;77;21450;-62
2020/12/20 05:29:09;;;;;;;41.88;16.87;;;;;;;2.83;93.95;102447.91;1840983;78;20926;-62
2020/12/20 05:31:37;;;;;;;40.48;14.50;;;;;;;2.82;94.12;102449.69;1841093;77;21040;-62
2020/12/20 05:34:22;;;;;;;35.63;14.35;;;;;;;2.80;94.30;102459.35;1838876;78;27172;-63
2020/12/20 05:36:51;;;;;;;34.58;14.25;;;;;;;2.76;94.41;102457.45;1836317;78;21527;-62
2020/12/20 05:39:26;;;;;;;32.03;14.20;;;;;;;2.75;94.54;102464.94;1826294;78;21181;-62
2020/12/20 05:42:07;;;;;;;35.17;14.93;;;;;;;2.78;94.56;102461.48;1889542;76;22656;-62
2020/12/20 05:44:36;;;;;;;39.48;15.48;;;;;;;2.72;94.61;102470.16;1860529;77;21004;-61
2020/12/20 05:47:06;;;;;;;38.55;15.28;;;;;;;2.70;94.73;102470.55;1860132;77;21522;-62
2020/12/20 05:49:38;;;;;;;34.98;14.33;;;;;;;2.69;94.87;102467.03;1860184;77;20945;-62
2020/12/20 05:52:11;;;;;;;29.02;14.35;;;;;;;2.69;95.08;102478.04;1860200;77;20996;-62
2020/12/20 05:54:40;;;;;;;39.70;14.00;;;;;;;2.66;95.19;102479.29;1860539;77;21000;-61
2020/12/20 05:57:11;;;;;;;31.15;14.73;;;;;;;2.63;95.37;102481.86;1860431;77;21008;-62
2020/12/20 05:59:40;;;;;;;34.98;14.53;;;;;;;2.62;95.54;102482.72;1860412;77;21188;-61
2020/12/20 06:02:08;;;;;;;41.95;16.15;;;;;;;2.63;95.72;102483.19;1860506;77;21534;-61
2020/12/20 06:04:37;;;;;;;35.13;14.83;;;;;;;2.63;95.84;102488.48;1860373;77;20913;-61
2020/12/20 06:07:10;;;;;;;36.68;15.28;;;;;;;2.64;95.98;102488.95;1860447;77;21071;-61
2020/12/20 06:09:56;;;;;;;43.00;15.25;;;;;;;2.63;96.04;102493.78;1859455;77;21060;-62
2020/12/20 06:12:28;;;;;;;35.35;14.83;;;;;;;2.62;96.06;102488.02;1860049;77;21133;-61
2020/12/20 06:14:58;;;;;;;38.40;15.10;;;;;;;2.62;96.18;102495.52;1860324;77;21131;-61
2020/12/20 06:17:26;;;;;;;32.15;14.70;;;;;;;2.62;96.26;102498.61;1860426;77;21107;-62
2020/12/20 06:20:00;;;;;;;43.25;14.98;;;;;;;2.63;96.32;102495.10;1860395;77;20929;-62
2020/12/20 06:22:31;;;;;;;41.92;16.67;;;;;;;2.64;96.38;102494.25;1856512;77;21126;-62
2020/12/20 06:25:05;;;;;;;35.50;14.80;;;;;;;2.65;96.43;102498.69;1860489;77;21535;-62
2020/12/20 06:27:34;;;;;;;41.65;15.65;;;;;;;2.66;96.48;102497.83;1860309;77;21158;-62
2020/12/20 06:30:05;;;;;;;34.43;14.55;;;;;;;2.71;96.54;102501.48;1860390;77;20929;-61
2020/12/20 06:32:44;;;;;;;36.20;15.90;;;;;;;2.75;96.49;102509.98;1860367;77;20933;-62
2020/12/20 06:35:24;;;;;;;44.73;16.27;;;;;;;2.76;96.38;102501.17;1860564;77;21175;-62
2020/12/20 06:37:52;;;;;;;37.53;14.15;;;;;;;2.79;96.34;102501.27;1836434;77;21342;-62
2020/12/20 06:40:34;;;;;;;37.35;15.80;;;;;;;2.83;96.29;102504.47;1830029;78;21278;-61
2020/12/20 06:43:02;;;;;;;34.03;15.60;;;;;;;2.83;96.19;102496.52;1830232;78;21064;-62
2020/12/20 06:45:30;;;;;;;35.55;16.27;;;;;;;2.85;95.91;102505.39;1830110;78;20921;-62
2020/12/20 06:48:03;;;;;;;36.75;16.70;;;;;;;2.84;95.80;102504.93;1830214;78;21110;-61
2020/12/20 06:50:43;;;;;;;38.92;17.12;;;;;;;2.84;95.68;102507.99;1830126;78;21530;-62
2020/12/20 06:53:14;;;;;;;42.30;16.70;;;;;;;2.84;95.61;102509.31;1829581;78;21018;-63
2020/12/20 06:55:42;;;;;;;36.13;16.42;;;;;;;2.85;95.66;102512.02;1829571;78;20919;-61
2020/12/20 06:58:17;;;;;;;33.48;14.80;;;;;;;2.91;95.68;102511.70;1829537;78;21130;-61
2020/12/20 07:00:56;;;;;;;40.45;17.67;;;;;;;2.95;95.53;102510.91;1829671;78;21141;-61
2020/12/20 07:03:31;;;;;;;36.63;18.37;;;;;;;2.90;94.81;102511.23;1829541;78;21185;-62
2020/12/20 07:06:11;;;;;;;35.85;17.17;;;;;;;2.83;94.89;102511.09;1829606;78;20971;-61
2020/12/20 07:08:40;;;;;;;32.80;15.08;;;;;;;2.82;94.93;102510.63;1828425;78;21118;-62
2020/12/20 07:14:06;;;;;;;43.00;17.37;;;;;;;2.71;94.68;102513.00;1873236;76;22592;-62
2020/12/20 07:16:38;;;;;;;36.03;17.35;;;;;;;2.60;94.78;102509.59;1839405;78;21002;-61
2020/12/20 07:19:07;;;;;;;37.42;16.62;;;;;;;2.56;95.11;102516.14;1841003;78;21359;-62
2020/12/20 07:21:56;;;;;;;46.60;21.70;;;;;;;2.56;95.09;102515.23;1841104;78;20993;-61
2020/12/20 07:24:29;;;;;;;41.40;19.85;;;;;;;2.48;94.88;102520.31;1841072;77;21020;-62
2020/12/20 07:27:02;;;;;;;41.05;18.23;;;;;;;2.37;95.21;102517.81;1841015;78;20973;-62
2020/12/20 07:29:34;;;;;;;41.23;17.90;;;;;;;2.28;95.43;102509.19;1841125;78;20986;-61
2020/12/20 07:32:04;;;;;;;38.65;17.15;;;;;;;2.28;95.83;102518.01;1841034;77;22287;-63
2020/12/20 07:34:32;;;;;;;39.67;17.42;;;;;;;2.34;96.14;102519.06;1841128;78;21493;-62
2020/12/20 07:37:00;;;;;;;35.50;18.57;;;;;;;2.41;96.39;102518.36;1834073;78;20940;-63
2020/12/20 07:39:27;;;;;;;38.00;18.42;;;;;;;2.51;96.33;102520.39;1825001;78;21110;-62
2020/12/20 07:41:59;;;;;;;38.73;17.15;;;;;;;2.58;96.26;102521.05;1824939;78;21133;-61
2020/12/20 07:44:33;;;;;;;36.03;17.02;;;;;;;2.65;96.14;102523.44;1824957;78;21432;-62
2020/12/20 07:47:12;;;;;;;36.08;17.60;;;;;;;2.72;95.91;102524.05;1824976;78;20972;-61
2020/12/20 07:49:40;;;;;;;42.25;18.95;;;;;;;2.78;95.67;102528.63;1824902;78;20932;-62
2020/12/20 07:52:09;;;;;;;43.52;18.57;;;;;;;2.83;95.34;102537.99;1824961;78;21144;-62
2020/12/20 07:54:36;;;;;;;47.10;18.45;;;;;;;2.83;94.94;102524.34;1824963;78;20986;-62
2020/12/20 07:57:05;;;;;;;38.00;17.92;;;;;;;2.84;94.87;102535.41;1824992;78;21230;-62
2020/12/20 07:59:32;;;;;;;39.95;18.27;;;;;;;2.88;94.73;102533.73;1825038;78;21908;-62
2020/12/20 08:02:00;;;;;;;41.83;17.42;;;;;;;2.90;94.64;102531.11;1825057;78;21157;-61
2020/12/20 08:04:29;;;;;;;44.15;16.95;;;;;;;2.95;94.64;102534.34;1824989;78;21201;-62
2020/12/20 08:06:56;;;;;;;40.25;17.60;;;;;;;3.00;94.27;102541.98;1824939;78;20980;-61
2020/12/20 08:09:26;;;;;;;41.95;18.57;;;;;;;3.03;93.88;102537.61;1824902;78;21354;-61
2020/12/20 08:11:55;;;;;;;35.65;17.57;;;;;;;3.06;93.49;102537.69;1824720;78;21118;-60
2020/12/20 08:14:23;;;;;;;38.25;19.23;;;;;;;3.08;93.20;102539.94;1825015;78;20936;-61
2020/12/20 08:16:52;;;;;;;44.05;20.50;;;;;;;3.12;93.24;102535.21;1824965;77;21033;-62
2020/12/20 08:19:22;;;;;;;45.38;19.92;;;;;;;3.18;93.02;102539.74;1824907;78;21050;-61
2020/12/20 08:22:06;;;;;;;37.35;18.27;;;;;;;3.21;92.92;102535.87;1805169;78;21429;-62
2020/12/20 08:24:47;;;;;;;35.92;15.95;;;;;;;3.27;92.81;102534.69;1824508;78;21011;-62
2020/12/20 08:27:29;;;;;;;34.75;16.17;;;;;;;3.35;92.13;102540.17;1824256;77;21154;-61
2020/12/20 08:29:59;;;;;;;42.33;18.52;;;;;;;3.37;91.46;102539.78;1824407;78;20996;-61
2020/12/20 08:32:43;;;;;;;35.28;17.27;;;;;;;3.38;90.69;102527.86;1824400;78;21158;-62
2020/12/20 08:35:18;;;;;;;42.98;17.77;;;;;;;3.39;90.29;102541.59;1824386;78;21735;-61
2020/12/20 08:37:48;;;;;;;34.83;16.67;;;;;;;3.37;89.98;102547.28;1836413;78;21128;-62
2020/12/20 08:40:17;;;;;;;40.63;17.42;;;;;;;3.36;89.63;102553.45;1840249;78;21012;-62
2020/12/20 08:42:46;;;;;;;37.83;17.17;;;;;;;3.36;89.43;102548.15;1840459;78;21099;-62
2020/12/20 08:45:17;;;;;;;38.15;16.73;;;;;;;3.35;89.27;102549.01;1840368;78;21123;-62
2020/12/20 08:47:45;;;;;;;34.70;16.00;;;;;;;3.34;89.04;102543.23;1840382;78;21187;-61
2020/12/20 08:50:13;;;;;;;35.43;15.45;;;;;;;3.33;88.98;102536.14;1840299;78;21080;-62
2020/12/20 08:52:42;;;;;;;30.77;14.95;;;;;;;3.34;88.90;102543.23;1840379;78;21040;-62
2020/12/20 08:55:09;;;;;;;33.18;15.72;;;;;;;3.38;88.55;102542.89;1840345;78;21040;-62
2020/12/20 08:57:37;;;;;;;34.55;14.87;;;;;;;3.42;88.30;102542.98;1840412;78;20954;-62
2020/12/20 09:00:17;;;;;;;40.48;21.07;;;;;;;3.47;87.74;102544.87;1840423;78;21366;-62
2020/12/20 09:02:44;;;;;;;41.25;19.55;;;;;;;3.47;87.13;102543.55;1840331;78;21012;-62
2020/12/20 09:05:13;;;;;;;36.20;19.20;;;;;;;3.50;87.05;102543.61;1840414;77;20930;-62
2020/12/20 09:07:47;;;;;;;39.65;20.50;;;;;;;3.53;87.00;102533.06;1840410;78;21438;-62
2020/12/20 09:10:26;;;;;;;37.15;16.45;;;;;;;3.56;86.70;102545.07;1840568;78;21155;-62
2020/12/20 09:12:58;;;;;;;30.00;15.18;;;;;;;3.60;86.07;102537.64;1840393;77;21196;-61
2020/12/20 09:15:33;;;;;;;31.73;15.10;;;;;;;3.64;85.98;102540.83;1840120;78;21021;-63
2020/12/20 09:18:03;;;;;;;;;;;;;;;3.68;85.98;102536.08;1843101;78;20985;-62
2020/12/20 09:20:31;;;;;;;32.33;15.53;;;;;;;3.70;85.74;102531.70;1838435;78;20154;-62
2020/12/20 09:23:00;;;;;;;40.08;17.05;;;;;;;3.71;85.66;102532.16;1784240;78;21064;-61
2020/12/20 09:25:37;;;;;;;38.33;18.42;;;;;;;3.76;85.47;102530.03;1840281;78;21182;-62
2020/12/20 09:28:08;;;;;;;36.48;17.00;;;;;;;3.76;85.47;102524.73;1840377;78;21691;-63
2020/12/20 09:30:43;;;;;;;44.03;20.57;;;;;;;3.80;85.66;102527.91;1840374;78;21548;-62
2020/12/20 09:33:31;;;;;;;;;;;;;;;3.86;85.62;102526.70;1843012;78;21072;-63
2020/12/20 09:36:14;;;;;;;34.13;17.73;;;;;;;3.90;85.32;102528.59;1840197;78;20222;-62
2020/12/20 09:38:49;;;;;;;34.85;16.55;;;;;;;3.90;85.17;102527.27;1827226;78;21339;-62
2020/12/20 09:41:20;;;;;;;35.08;16.25;;;;;;;3.90;85.04;102526.35;1827624;78;21592;-62
2020/12/20 09:43:49;;;;;;;40.15;19.55;;;;;;;3.89;84.79;102531.20;1827373;78;21090;-61
2020/12/20 09:46:33;;;;;;;36.60;17.73;;;;;;;3.90;84.67;102531.66;1827454;78;20967;-62
2020/12/20 09:49:01;;;;;;;42.15;16.02;;;;;;;3.89;84.80;102525.47;1826990;78;21074;-62
2020/12/20 09:51:32;;;;;;;41.23;16.67;;;;;;;3.94;85.04;102527.78;1827487;78;21700;-62
2020/12/20 09:54:08;;;;;;;36.95;15.35;;;;;;;3.95;84.95;102521.61;1809627;78;21477;-62
2020/12/20 09:56:41;;;;;;;28.32;13.98;;;;;;;3.96;84.53;102519.42;1827434;78;21003;-62
2020/12/20 09:59:08;;;;;;;27.52;13.88;;;;;;;3.96;84.59;102523.41;1827561;78;21499;-62
2020/12/20 10:01:36;;;;;;;34.92;13.83;;;;;;;3.98;84.71;102522.13;1827430;77;21086;-61
2020/12/20 10:04:04;;;;;;;33.80;14.70;;;;;;;4.00;84.40;102515.96;1827484;78;21374;-61
2020/12/20 10:06:31;;;;;;;32.03;13.78;;;;;;;4.04;84.08;102515.60;1827333;77;20920;-62
2020/12/20 10:09:00;;;;;;;26.93;14.43;;;;;;;4.10;83.85;102505.55;1827481;78;21047;-62
2020/12/20 10:11:28;;;;;;;27.02;13.22;;;;;;;4.18;83.77;102511.90;1827433;78;20972;-62
2020/12/20 10:13:55;;;;;;;34.78;16.05;;;;;;;4.23;83.42;102514.20;1827339;77;21117;-62
2020/12/20 10:16:24;;;;;;;29.72;14.28;;;;;;;4.28;83.31;102505.89;1827490;78;21149;-62
2020/12/20 10:18:52;;;;;;;36.60;16.25;;;;;;;4.30;83.28;102507.26;1827485;78;21027;-61
2020/12/20 10:21:19;;;;;;;32.40;15.80;;;;;;;4.33;83.05;102504.66;1827430;78;21138;-62
2020/12/20 10:23:48;;;;;;;29.72;14.68;;;;;;;4.37;83.10;102506.95;1827242;78;21114;-63
2020/12/20 10:26:16;;;;;;;29.42;14.60;;;;;;;4.39;82.85;102499.91;1827448;78;21102;-63
2020/12/20 10:28:44;;;;;;;28.55;14.28;;;;;;;4.38;82.34;102500.77;1827486;78;22220;-61
2020/12/20 10:31:20;;;;;;;26.20;13.90;;;;;;;4.39;82.37;102494.59;1827326;78;21051;-62
2020/12/20 10:33:47;;;;;;;30.35;14.80;;;;;;;4.46;82.39;102500.47;1827351;78;21130;-62
2020/12/20 10:36:15;;;;;;;33.40;14.95;;;;;;;4.53;82.26;102497.08;1828945;78;21086;-62
2020/12/20 10:38:43;;;;;;;31.25;16.42;;;;;;;4.58;81.98;102502.03;1840276;78;21032;-62
2020/12/20 10:41:10;;;;;;;30.88;15.20;;;;;;;4.61;81.87;102497.64;1840340;78;21349;-62
2020/12/20 10:43:38;;;;;;;30.45;14.75;;;;;;;4.61;81.68;102495.86;1840166;78;21068;-62
2020/12/20 10:46:07;;;;;;;36.13;16.50;;;;;;;4.61;81.58;102492.33;1840296;78;20963;-63
2020/12/20 10:48:34;;;;;;;31.37;15.85;;;;;;;4.58;81.77;102493.16;1840264;78;21004;-63
2020/12/20 10:51:02;;;;;;;31.55;15.13;;;;;;;4.57;81.96;102484.31;1840439;78;21453;-62
2020/12/20 10:53:29;;;;;;;27.22;12.13;;;;;;;4.56;81.65;102478.53;1840286;78;21236;-63
2020/12/20 10:55:57;;;;;;;29.27;12.37;;;;;;;4.53;81.10;102487.78;1840282;78;21029;-62
2020/12/20 10:58:24;;;;;;;38.85;12.93;;;;;;;4.49;80.62;102483.70;1840374;78;21044;-63
2020/12/20 11:00:52;;;;;;;31.55;12.80;;;;;;;4.47;80.91;102484.99;1840259;78;21175;-63
2020/12/20 11:03:20;;;;;;;29.30;14.03;;;;;;;4.48;81.17;102484.58;1840273;78;21560;-62
2020/12/20 11:05:47;;;;;;;26.27;13.43;;;;;;;4.47;81.00;102488.98;1840174;78;21191;-62
2020/12/20 11:08:15;;;;;;;26.52;12.10;;;;;;;4.45;81.04;102480.09;1840184;78;20994;-62
2020/12/20 11:10:43;;;;;;;26.07;12.47;;;;;;;4.44;81.00;102484.94;1840213;78;20934;-62
2020/12/20 11:13:10;;;;;;;21.37;11.60;;;;;;;4.43;81.39;102485.81;1840380;77;21013;-61
2020/12/20 11:15:38;;;;;;;25.92;12.58;;;;;;;4.45;81.62;102489.38;1846294;77;21112;-62
2020/12/20 11:18:05;;;;;;;28.02;13.85;;;;;;;4.44;81.75;102483.61;1846162;77;22124;-63
2020/12/20 11:20:33;;;;;;;35.38;16.20;;;;;;;4.42;82.13;102491.57;1845961;77;20954;-62
2020/12/20 11:23:04;;;;;;;26.77;13.08;;;;;;;4.40;82.27;102484.43;1846053;77;21041;-62
2020/12/20 11:25:33;;;;;;;33.60;14.07;;;;;;;4.39;82.48;102486.17;1845968;77;21071;-62
2020/12/20 11:28:01;;;;;;;30.30;13.35;;;;;;;4.39;82.58;102478.66;1846015;77;21047;-62
2020/12/20 11:30:28;;;;;;;25.72;13.62;;;;;;;4.39;82.99;102481.31;1846168;77;22199;-62
2020/12/20 11:32:56;;;;;;;30.00;13.80;;;;;;;4.43;82.92;102480.49;1846016;77;21104;-62
2020/12/20 11:35:23;;;;;;;31.20;13.78;;;;;;;4.45;82.78;102489.38;1846152;77;21040;-62